createdAt,value
2022-12-04T00:01:51.484Z,13.80
2022-12-04T00:04:18.173Z,14.13
2022-12-04T00:06:44.690Z,15.10
2022-12-04T00:09:11.311Z,14.47
2022-12-04T00:11:38.792Z,13.20
2022-12-04T00:14:07.459Z,14.53
2022-12-04T00:16:34.570Z,13.67
2022-12-04T00:19:01.207Z,14.00
2022-12-04T00:21:27.797Z,14.93
2022-12-04T00:23:55.026Z,14.17
2022-12-04T00:26:24.120Z,14.07
2022-12-04T00:28:51.099Z,15.47
2022-12-04T00:31:20.800Z,14.93
2022-12-04T00:33:47.707Z,13.30
2022-12-04T00:36:17.051Z,13.00
2022-12-04T00:38:44.747Z,15.03
2022-12-04T00:41:18.042Z,14.40
2022-12-04T00:43:45.880Z,14.77
2022-12-04T00:46:13.058Z,16.47
2022-12-04T00:48:40.184Z,13.43
2022-12-04T00:51:14.789Z,12.90
2022-12-04T00:53:41.855Z,14.10
2022-12-04T00:56:11.055Z,14.10
2022-12-04T00:58:37.905Z,13.80
2022-12-04T01:01:11.043Z,14.53
2022-12-04T01:03:38.213Z,13.07
2022-12-04T01:06:05.056Z,14.30
2022-12-04T01:08:32.169Z,15.77
2022-12-04T01:10:58.798Z,16.20
2022-12-04T01:13:26.202Z,14.60
2022-12-04T01:15:52.874Z,14.23
2022-12-04T01:18:19.463Z,14.10
2022-12-04T01:20:51.614Z,13.50
2022-12-04T01:23:19.335Z,16.63
2022-12-04T01:25:57.634Z,14.63
2022-12-04T01:28:25.367Z,13.07
2022-12-04T01:31:04.511Z,13.67
2022-12-04T01:33:31.831Z,12.93
2022-12-04T01:35:59.461Z,13.37
2022-12-04T01:38:26.692Z,16.23
2022-12-04T01:40:54.374Z,13.70
2022-12-04T01:43:21.602Z,14.20
2022-12-04T01:45:50.724Z,15.97
2022-12-04T01:48:28.499Z,13.40
2022-12-04T01:51:18.835Z,14.10
2022-12-04T01:53:52.960Z,13.03
2022-12-04T01:56:22.820Z,12.77
2022-12-04T01:58:51.753Z,11.23
2022-12-04T02:01:18.524Z,12.70
2022-12-04T02:03:45.050Z,11.90
2022-12-04T02:06:11.497Z,12.47
2022-12-04T02:08:38.252Z,12.60
2022-12-04T02:11:23.348Z,12.93
2022-12-04T02:14:10.855Z,12.27
2022-12-04T02:16:42.115Z,12.10
2022-12-04T02:19:38.396Z,12.10
2022-12-04T02:22:30.926Z,12.30
2022-12-04T02:25:12.749Z,11.90
2022-12-04T02:27:39.171Z,11.63
2022-12-04T02:30:08.465Z,13.53
2022-12-04T02:32:47.508Z,13.17
2022-12-04T02:35:23.910Z,11.40
2022-12-04T02:37:54.730Z,15.23
2022-12-04T02:40:26.706Z,11.80
2022-12-04T02:43:09.345Z,12.80
2022-12-04T02:45:44.279Z,11.73
2022-12-04T02:48:11.492Z,13.23
2022-12-04T02:50:40.876Z,12.23
2022-12-04T02:53:14.935Z,12.10
2022-12-04T02:55:44.282Z,11.17
2022-12-04T02:58:31.741Z,12.17
2022-12-04T03:01:00.783Z,12.53
2022-12-04T03:03:29.145Z,12.37
2022-12-04T03:06:00.538Z,15.17
2022-12-04T03:08:51.318Z,12.27
2022-12-04T03:11:18.138Z,12.10
2022-12-04T03:13:52.042Z,12.20
2022-12-04T03:16:28.571Z,13.63
2022-12-04T03:19:14.677Z,9.97
2022-12-04T03:21:47.167Z,10.47
2022-12-04T03:24:44.925Z,10.13
2022-12-04T03:27:15.989Z,12.93
2022-12-04T03:29:47.080Z,11.47
2022-12-04T03:32:17.473Z,12.70
2022-12-04T03:34:53.764Z,10.93
2022-12-04T03:37:30.437Z,12.13
2022-12-04T03:40:06.234Z,11.60
2022-12-04T03:42:39.360Z,12.33
2022-12-04T03:45:25.182Z,12.30
2022-12-04T03:48:08.138Z,12.03
2022-12-04T03:50:40.035Z,11.33
2022-12-04T03:53:15.181Z,9.60
2022-12-04T03:55:49.605Z,16.33
2022-12-04T03:58:21.233Z,14.40
2022-12-04T04:00:51.459Z,10.13
2022-12-04T04:03:23.573Z,13.80
2022-12-04T04:05:53.558Z,12.87
2022-12-04T04:08:27.029Z,16.33
2022-12-04T04:10:57.301Z,12.10
2022-12-04T04:13:46.903Z,9.50
2022-12-04T04:16:35.627Z,14.33
2022-12-04T04:19:21.192Z,12.70
2022-12-04T04:22:08.300Z,9.20
2022-12-04T04:24:40.101Z,10.00
2022-12-04T04:27:06.585Z,9.50
2022-12-04T04:29:33.309Z,11.47
2022-12-04T04:32:09.844Z,9.70
2022-12-04T04:35:03.546Z,10.80
2022-12-04T04:38:08.557Z,9.53
2022-12-04T04:40:54.590Z,10.73
2022-12-04T04:43:26.118Z,9.60
2022-12-04T04:46:32.681Z,9.63
2022-12-04T04:49:03.210Z,10.00
2022-12-04T04:51:31.108Z,9.73
2022-12-04T04:53:59.425Z,9.80
2022-12-04T04:56:27.006Z,9.47
2022-12-04T04:58:53.509Z,8.93
2022-12-04T05:01:23.236Z,10.70
2022-12-04T05:03:49.970Z,8.97
2022-12-04T05:06:16.612Z,9.83
2022-12-04T05:08:44.136Z,8.73
2022-12-04T05:11:15.120Z,9.77
2022-12-04T05:13:41.743Z,12.17
2022-12-04T05:16:11.695Z,11.17
2022-12-04T05:18:38.581Z,10.37
2022-12-04T05:21:09.374Z,10.27
2022-12-04T05:23:36.027Z,10.87
2022-12-04T05:26:04.082Z,12.47
2022-12-04T05:28:30.732Z,9.20
2022-12-04T05:31:00.976Z,8.93
2022-12-04T05:33:28.269Z,10.07
2022-12-04T05:36:03.599Z,10.80
2022-12-04T05:38:30.232Z,8.90
2022-12-04T05:41:00.886Z,9.97
2022-12-04T05:43:27.632Z,10.47
2022-12-04T05:45:54.285Z,10.23
2022-12-04T05:48:21.141Z,9.87
2022-12-04T05:50:47.624Z,9.93
2022-12-04T05:53:14.359Z,9.27
2022-12-04T05:55:40.833Z,9.93
2022-12-04T05:58:07.460Z,11.13
2022-12-04T06:00:34.151Z,13.90
2022-12-04T06:03:00.718Z,11.27
2022-12-04T06:05:27.344Z,8.83
2022-12-04T06:07:53.891Z,17.20
2022-12-04T06:10:20.453Z,16.53
2022-12-04T06:12:46.946Z,12.17
2022-12-04T06:15:13.569Z,9.80
2022-12-04T06:17:40.201Z,10.27
2022-12-04T06:20:11.488Z,10.80
2022-12-04T06:22:38.583Z,9.97
2022-12-04T06:25:05.386Z,10.60
2022-12-04T06:27:32.005Z,11.47
2022-12-04T06:29:59.054Z,10.30
2022-12-04T06:32:25.747Z,11.43
2022-12-04T06:34:53.622Z,10.50
2022-12-04T06:37:21.777Z,9.10
2022-12-04T06:39:48.507Z,10.53
2022-12-04T06:42:15.332Z,10.20
2022-12-04T06:44:41.795Z,10.50
2022-12-04T06:47:09.050Z,10.93
2022-12-04T06:49:36.295Z,10.23
2022-12-04T06:52:03.026Z,9.47
2022-12-04T06:54:29.722Z,10.23
2022-12-04T06:56:56.416Z,9.70
2022-12-04T06:59:22.993Z,12.00
2022-12-04T07:01:49.587Z,10.37
2022-12-04T07:04:16.534Z,8.90
2022-12-04T07:06:43.057Z,7.63
2022-12-04T07:09:17.133Z,9.20
2022-12-04T07:11:44.418Z,7.27
2022-12-04T07:14:12.162Z,7.40
2022-12-04T07:16:41.574Z,7.30
2022-12-04T07:19:09.898Z,6.13
2022-12-04T07:21:36.366Z,5.20
2022-12-04T07:24:02.922Z,5.07
2022-12-04T07:26:30.198Z,5.40
2022-12-04T07:28:57.770Z,2.77
2022-12-04T07:31:25.565Z,2.97
2022-12-04T07:33:54.015Z,3.27
2022-12-04T07:36:21.791Z,2.83
2022-12-04T07:38:48.269Z,2.60
2022-12-04T07:41:15.453Z,2.67
2022-12-04T07:43:42.327Z,2.87
2022-12-04T07:46:18.174Z,3.27
2022-12-04T07:48:44.756Z,3.43
2022-12-04T07:51:13.861Z,3.07
2022-12-04T07:53:40.600Z,2.70
2022-12-04T07:56:07.814Z,3.10
2022-12-04T07:58:34.890Z,3.20
2022-12-04T08:01:11.495Z,3.00
2022-12-04T08:03:43.505Z,2.53
2022-12-04T08:06:13.668Z,2.23
2022-12-04T08:08:40.267Z,2.67
2022-12-04T08:11:08.521Z,2.83
2022-12-04T08:13:35.159Z,3.00
2022-12-04T08:16:06.089Z,3.10
2022-12-04T08:18:32.746Z,2.90
2022-12-04T08:21:15.428Z,2.63
2022-12-04T08:23:43.198Z,2.50
2022-12-04T08:26:10.587Z,2.30
2022-12-04T08:28:37.453Z,2.43
2022-12-04T08:31:10.260Z,3.00
2022-12-04T08:33:36.816Z,2.80
2022-12-04T08:36:07.080Z,3.17
2022-12-04T08:38:33.666Z,2.40
2022-12-04T08:41:01.242Z,2.20
2022-12-04T08:43:28.386Z,4.23
2022-12-04T08:46:02.492Z,2.70
2022-12-04T08:48:29.004Z,2.40
2022-12-04T08:50:55.915Z,2.33
2022-12-04T08:53:22.657Z,2.87
2022-12-04T08:55:49.150Z,2.70
2022-12-04T08:58:16.020Z,2.60
2022-12-04T09:00:43.318Z,2.40
2022-12-04T09:03:14.082Z,1.80
2022-12-04T09:05:41.589Z,2.07
2022-12-04T09:08:08.444Z,2.37
2022-12-04T09:10:36.146Z,2.50
2022-12-04T09:13:02.624Z,2.53
2022-12-04T09:15:29.432Z,3.30
2022-12-04T09:17:55.936Z,2.80
2022-12-04T09:20:22.571Z,2.40
2022-12-04T09:23:03.465Z,3.23
2022-12-04T09:25:30.889Z,2.20
2022-12-04T09:27:57.646Z,2.80
2022-12-04T09:30:24.213Z,2.87
2022-12-04T09:32:50.769Z,2.43
2022-12-04T09:35:17.379Z,2.70
2022-12-04T09:37:44.134Z,2.40
2022-12-04T09:40:20.279Z,2.70
2022-12-04T09:42:58.392Z,2.70
2022-12-04T09:45:25.850Z,2.80
2022-12-04T09:47:54.467Z,2.60
2022-12-04T09:50:24.372Z,3.13
2022-12-04T09:53:02.855Z,2.77
2022-12-04T09:55:58.687Z,2.83
2022-12-04T09:58:41.135Z,2.67
2022-12-04T10:01:18.364Z,3.20
2022-12-04T10:03:44.961Z,3.10
2022-12-04T10:06:33.126Z,3.10
2022-12-04T10:09:14.918Z,3.70
2022-12-04T10:12:00.816Z,2.73
2022-12-04T10:14:39.072Z,3.70
2022-12-04T10:17:25.563Z,3.37
2022-12-04T10:20:18.345Z,3.33
2022-12-04T10:23:00.067Z,3.60
2022-12-04T10:25:27.332Z,3.07
2022-12-04T10:28:01.745Z,3.33
2022-12-04T10:30:34.946Z,3.60
2022-12-04T10:33:15.160Z,3.40
2022-12-04T10:35:43.029Z,2.97
2022-12-04T10:38:33.691Z,4.37
2022-12-04T10:41:03.467Z,3.50
2022-12-04T10:43:47.133Z,3.87
2022-12-04T10:46:25.984Z,2.90
2022-12-04T10:48:56.612Z,3.60
2022-12-04T10:51:24.098Z,4.10
2022-12-04T10:53:51.068Z,3.50
2022-12-04T10:56:20.493Z,3.57
2022-12-04T10:58:57.386Z,2.60
2022-12-04T11:01:24.252Z,4.00
2022-12-04T11:04:06.668Z,3.67
2022-12-04T11:06:34.838Z,12.03
2022-12-04T11:09:02.391Z,8.00
2022-12-04T11:11:31.078Z,10.70
2022-12-04T11:14:14.128Z,10.70
2022-12-04T11:16:46.293Z,10.43
2022-12-04T11:19:39.291Z,11.60
2022-12-04T11:22:16.670Z,13.07
2022-12-04T11:24:43.321Z,10.43
2022-12-04T11:27:23.782Z,13.83
2022-12-04T11:29:50.868Z,13.77
2022-12-04T11:32:30.162Z,12.90
2022-12-04T11:35:00.894Z,13.17
2022-12-04T11:37:30.405Z,12.47
2022-12-04T11:39:57.328Z,12.73
2022-12-04T11:42:27.321Z,13.67
2022-12-04T11:45:00.878Z,12.17
2022-12-04T11:47:30.239Z,11.03
2022-12-04T11:50:01.526Z,13.50
2022-12-04T11:52:47.996Z,13.70
2022-12-04T11:55:44.596Z,12.87
2022-12-04T11:58:26.246Z,14.50
2022-12-04T12:01:39.186Z,12.60
2022-12-04T12:04:39.769Z,12.30
2022-12-04T12:07:30.358Z,12.47
2022-12-04T12:10:17.054Z,12.70
2022-12-04T12:13:12.823Z,12.30
2022-12-04T12:15:54.665Z,11.40
2022-12-04T12:18:55.379Z,11.70
2022-12-04T12:21:52.259Z,13.30
2022-12-04T12:24:57.098Z,10.57
2022-12-04T12:27:50.570Z,12.10
2022-12-04T12:30:24.185Z,11.90
2022-12-04T12:33:03.002Z,12.10
2022-12-04T12:35:40.067Z,13.20
2022-12-04T12:38:19.241Z,11.47
2022-12-04T12:40:50.490Z,12.60
2022-12-04T12:43:30.338Z,12.10
2022-12-04T12:46:12.626Z,13.33
2022-12-04T12:49:00.935Z,11.97
2022-12-04T12:51:37.495Z,12.97
2022-12-04T12:54:32.420Z,12.97
2022-12-04T12:57:11.934Z,12.50
2022-12-04T12:59:42.756Z,12.93
2022-12-04T13:02:18.416Z,12.30
2022-12-04T13:04:48.900Z,12.80
2022-12-04T13:07:18.353Z,11.73
2022-12-04T13:10:06.211Z,11.60
2022-12-04T13:12:44.326Z,12.57
2022-12-04T13:15:19.197Z,13.40
2022-12-04T13:17:47.888Z,12.13
2022-12-04T13:20:18.957Z,12.20
2022-12-04T13:23:02.400Z,13.10
2022-12-04T13:25:35.972Z,11.97
2022-12-04T13:28:18.207Z,12.27
2022-12-04T13:30:50.711Z,12.13
2022-12-04T13:33:49.730Z,11.83
2022-12-04T13:36:40.640Z,12.73
2022-12-04T13:39:44.593Z,12.77
2022-12-04T13:42:27.973Z,11.70
2022-12-04T13:45:06.771Z,12.80
2022-12-04T13:47:34.934Z,11.20
2022-12-04T13:50:29.833Z,12.20
2022-12-04T13:52:56.669Z,12.70
2022-12-04T13:55:38.352Z,11.77
2022-12-04T13:58:10.982Z,12.93
2022-12-04T14:00:42.379Z,12.70
2022-12-04T14:03:21.739Z,12.87
2022-12-04T14:05:48.705Z,11.20
2022-12-04T14:08:24.534Z,13.00
2022-12-04T14:11:04.908Z,13.47
2022-12-04T14:13:44.620Z,11.77
2022-12-04T14:16:39.130Z,12.73
2022-12-04T14:19:06.717Z,12.30
2022-12-04T14:21:42.013Z,14.30
2022-12-04T14:24:28.068Z,16.47
2022-12-04T14:29:52.570Z,13.40
2022-12-04T14:32:22.537Z,15.63
2022-12-04T14:34:49.801Z,12.83
2022-12-04T14:38:01.636Z,24.37
2022-12-04T14:40:34.013Z,12.97
2022-12-04T14:43:00.829Z,13.83
2022-12-04T14:45:37.647Z,15.80
2022-12-04T14:48:09.053Z,13.23
2022-12-04T14:51:02.682Z,13.77
2022-12-04T14:53:32.602Z,12.63
2022-12-04T14:56:07.074Z,11.77
2022-12-04T14:58:34.856Z,12.97
2022-12-04T15:01:16.095Z,14.60
2022-12-04T15:03:45.360Z,12.93
2022-12-04T15:06:20.306Z,13.00
2022-12-04T15:09:15.694Z,12.93
2022-12-04T15:12:10.027Z,13.67
2022-12-04T15:14:44.409Z,14.50
2022-12-04T15:17:12.105Z,13.77
2022-12-04T15:19:39.178Z,14.17
2022-12-04T15:22:11.691Z,13.50
2022-12-04T15:24:40.204Z,14.30
2022-12-04T15:27:07.083Z,22.03
2022-12-04T15:29:38.285Z,14.13
2022-12-04T15:32:08.575Z,15.57
2022-12-04T15:34:42.820Z,13.53
2022-12-04T15:37:16.825Z,15.33
2022-12-04T15:39:44.330Z,13.60
2022-12-04T15:42:24.610Z,13.80
2022-12-04T15:45:02.142Z,12.07
2022-12-04T15:47:50.755Z,13.80
2022-12-04T15:50:17.231Z,18.40
2022-12-04T15:52:51.256Z,18.50
2022-12-04T15:55:19.615Z,18.07
2022-12-04T15:57:52.744Z,18.13
2022-12-04T16:00:34.668Z,17.80
2022-12-04T16:03:01.376Z,16.67
2022-12-04T16:05:35.135Z,15.30
2022-12-04T16:08:23.064Z,15.13
2022-12-04T16:11:01.660Z,15.40
2022-12-04T16:13:33.875Z,17.90
2022-12-04T16:16:00.570Z,16.57
2022-12-04T16:18:28.122Z,16.77
2022-12-04T16:20:55.335Z,15.43
2022-12-04T16:23:24.132Z,15.87
2022-12-04T16:25:53.527Z,14.93
2022-12-04T16:28:20.545Z,15.00
2022-12-04T16:30:47.364Z,16.40
2022-12-04T16:33:15.405Z,13.87
2022-12-04T16:35:42.440Z,13.93
2022-12-04T16:38:15.565Z,11.03
2022-12-04T16:40:43.087Z,11.70
2022-12-04T16:43:12.902Z,9.83
2022-12-04T16:45:44.790Z,9.50
2022-12-04T16:48:11.296Z,12.13
2022-12-04T16:50:37.791Z,9.27
2022-12-04T16:53:04.385Z,11.60
2022-12-04T16:55:39.966Z,12.03
2022-12-04T16:58:08.036Z,10.80
2022-12-04T17:00:36.393Z,8.23
2022-12-04T17:03:04.295Z,6.00
2022-12-04T17:05:33.516Z,4.90
2022-12-04T17:08:00.711Z,4.10
2022-12-04T17:10:27.638Z,3.37
2022-12-04T17:12:54.962Z,2.90
2022-12-04T17:15:22.040Z,3.80
2022-12-04T17:17:48.813Z,3.20
2022-12-04T17:20:17.613Z,3.87
2022-12-04T17:22:44.157Z,3.43
2022-12-04T17:25:11.393Z,2.53
2022-12-04T17:27:38.519Z,3.10
2022-12-04T17:30:06.365Z,2.67
2022-12-04T17:32:37.294Z,2.10
2022-12-04T17:35:05.328Z,2.30
2022-12-04T17:37:36.037Z,2.53
2022-12-04T17:40:02.587Z,15.47
2022-12-04T17:42:29.016Z,18.87
2022-12-04T17:44:55.949Z,24.03
2022-12-04T17:47:22.600Z,18.30
2022-12-04T17:49:49.152Z,20.47
2022-12-04T17:52:15.877Z,15.47
2022-12-04T17:54:42.328Z,16.20
2022-12-04T17:57:08.926Z,14.03
2022-12-04T17:59:35.552Z,13.60
2022-12-04T18:02:02.295Z,12.13
2022-12-04T18:04:28.750Z,11.97
2022-12-04T18:06:56.561Z,14.43
2022-12-04T18:09:23.147Z,14.40
2022-12-04T18:11:49.724Z,14.23
2022-12-04T18:14:18.750Z,12.73
2022-12-04T18:16:47.749Z,13.03
2022-12-04T18:19:14.927Z,13.17
2022-12-04T18:21:41.635Z,11.20
2022-12-04T18:24:08.548Z,11.90
2022-12-04T18:26:44.016Z,12.77
2022-12-04T18:29:12.901Z,13.10
2022-12-04T18:31:39.508Z,10.37
2022-12-04T18:34:06.736Z,13.30
2022-12-04T18:36:34.709Z,10.30
2022-12-04T18:39:08.253Z,11.97
2022-12-04T18:41:35.253Z,11.90
2022-12-04T18:44:03.176Z,11.13
2022-12-04T18:46:30.161Z,12.90
2022-12-04T18:49:01.136Z,11.50
2022-12-04T18:51:43.710Z,8.50
2022-12-04T18:54:16.606Z,12.10
2022-12-04T18:56:43.805Z,10.70
2022-12-04T18:59:12.980Z,12.63
2022-12-04T19:01:40.400Z,9.87
2022-12-04T19:04:08.623Z,12.43
2022-12-04T19:06:43.907Z,10.03
2022-12-04T19:09:13.329Z,11.80
2022-12-04T19:11:40.503Z,11.90
2022-12-04T19:14:16.121Z,11.00
2022-12-04T19:16:44.441Z,9.00
2022-12-04T19:19:11.850Z,11.10
2022-12-04T19:21:38.630Z,11.80
2022-12-04T19:24:06.044Z,11.60
2022-12-04T19:26:34.326Z,11.50
2022-12-04T19:29:01.856Z,12.90
2022-12-04T19:31:31.663Z,11.57
2022-12-04T19:33:58.550Z,10.87
2022-12-04T19:36:29.509Z,11.53
2022-12-04T19:38:59.652Z,10.80
2022-12-04T19:41:28.503Z,11.60
2022-12-04T19:43:56.934Z,11.40
2022-12-04T19:46:28.923Z,10.53
2022-12-04T19:49:00.327Z,11.20
2022-12-04T19:51:26.896Z,12.13
2022-12-04T19:53:54.633Z,11.93
2022-12-04T19:56:24.575Z,11.87
2022-12-04T19:58:51.910Z,10.10
2022-12-04T20:01:20.952Z,11.80
2022-12-04T20:03:47.650Z,12.83
2022-12-04T20:06:16.572Z,11.33
2022-12-04T20:08:43.466Z,11.63
2022-12-04T20:11:12.884Z,12.20
2022-12-04T20:13:40.023Z,11.73
2022-12-04T20:16:10.739Z,11.90
2022-12-04T20:18:39.060Z,13.30
2022-12-04T20:21:15.368Z,12.93
2022-12-04T20:23:46.316Z,12.20
2022-12-04T20:26:14.356Z,13.00
2022-12-04T20:28:41.624Z,10.77
2022-12-04T20:31:18.486Z,11.60
2022-12-04T20:33:47.900Z,12.50
2022-12-04T20:36:15.683Z,11.03
2022-12-04T20:38:42.732Z,11.97
2022-12-04T20:41:13.311Z,13.07
2022-12-04T20:43:40.257Z,11.80
2022-12-04T20:46:16.625Z,12.60
2022-12-04T20:48:48.253Z,12.17
2022-12-04T20:51:17.542Z,10.80
2022-12-04T20:53:44.896Z,10.73
2022-12-04T20:56:11.805Z,10.07
2022-12-04T20:58:39.005Z,12.00
2022-12-04T21:01:10.604Z,12.37
2022-12-04T21:03:37.281Z,11.33
2022-12-04T21:06:04.901Z,10.70
2022-12-04T21:09:02.022Z,13.40
2022-12-04T21:11:31.815Z,12.47
2022-12-04T21:14:18.406Z,10.27
2022-12-04T21:16:45.581Z,11.37
2022-12-04T21:19:13.920Z,12.57
2022-12-04T21:21:40.891Z,11.90
2022-12-04T21:24:09.660Z,12.40
2022-12-04T21:26:36.631Z,12.27
2022-12-04T21:29:04.655Z,12.20
2022-12-04T21:31:31.723Z,11.80
2022-12-04T21:33:59.780Z,11.13
2022-12-04T21:36:27.209Z,12.53
2022-12-04T21:38:54.205Z,11.60
2022-12-04T21:41:39.734Z,11.80
2022-12-04T21:44:07.943Z,12.73
2022-12-04T21:46:34.544Z,14.37
2022-12-04T21:49:01.371Z,13.43
2022-12-04T21:51:55.768Z,12.17
2022-12-04T21:54:14.655Z,13.03
2022-12-04T21:56:41.199Z,10.97
2022-12-04T21:59:08.014Z,10.57
2022-12-04T22:01:34.625Z,11.80
2022-12-04T22:04:01.477Z,11.00
2022-12-04T22:06:28.579Z,12.30
2022-12-04T22:08:55.443Z,12.63
2022-12-04T22:11:22.032Z,11.87
2022-12-04T22:13:48.804Z,12.77
2022-12-04T22:16:16.915Z,11.80
2022-12-04T22:18:43.764Z,12.40
2022-12-04T22:21:12.974Z,13.27
2022-12-04T22:23:40.438Z,12.63
2022-12-04T22:26:08.289Z,12.63
2022-12-04T22:28:35.376Z,11.50
2022-12-04T22:31:03.492Z,10.70
2022-12-04T22:33:30.377Z,11.07
2022-12-04T22:36:02.764Z,11.43
2022-12-04T22:38:29.566Z,12.53
2022-12-04T22:41:01.464Z,10.53
2022-12-04T22:43:34.103Z,11.00
2022-12-04T22:46:04.281Z,11.23
2022-12-04T22:48:32.896Z,11.60
2022-12-04T22:51:27.520Z,11.43
2022-12-04T22:53:56.154Z,10.80
2022-12-04T22:56:25.734Z,11.40
2022-12-04T22:58:52.378Z,12.50
2022-12-04T23:01:30.197Z,12.73
2022-12-04T23:03:57.167Z,12.33
2022-12-04T23:06:27.094Z,12.60
2022-12-04T23:08:59.328Z,10.47
2022-12-04T23:11:26.793Z,11.07
2022-12-04T23:14:00.091Z,10.00
2022-12-04T23:16:28.248Z,11.60
2022-12-04T23:18:55.469Z,9.60
2022-12-04T23:21:22.772Z,11.70
2022-12-04T23:23:51.721Z,12.53
2022-12-04T23:26:23.804Z,11.07
2022-12-04T23:28:50.676Z,10.90
2022-12-04T23:31:17.753Z,10.47
2022-12-04T23:33:44.526Z,11.70
2022-12-04T23:36:12.430Z,10.93
2022-12-04T23:38:40.138Z,9.93
2022-12-04T23:41:21.809Z,11.43
2022-12-04T23:43:49.224Z,9.77
2022-12-04T23:46:19.264Z,10.70
2022-12-04T23:48:46.579Z,10.40
2022-12-04T23:51:15.165Z,10.87
2022-12-04T23:53:41.885Z,11.10
2022-12-04T23:56:12.783Z,11.03
2022-12-04T23:58:40.065Z,11.47
